Terminal Aerodrome Forecast
Issued by NWS Pittsburgh, PA

Home | Current Version | Previous Version | Text Only | Print | Product List | Glossary On
Versions: 1 2 3 4 5 6 7 8 9 10 11 12 13 14 15 16 17 18 19 20 21 22 23 24 25 26 27
000
FTUS41 KPBZ 162324
TAFPIT
TAF
KPIT 162324Z 1700/1806 VRB03KT P6SM SCT060
     FM171400 18005KT P6SM BKN100
     FM171800 20005KT P6SM VCSH BKN050
     FM172100 18005KT P6SM VCTS BKN035CB
     FM180200 18005KT 5SM -SHRA BR OVC035=

USA.gov is the U.S. government's official web portal to all federal, state and local government web resources and services.